Time;durP1;ratioP1;P1;durP2;ratioP2;P2;SDS_P1;SDS_P2;PMS_P1;PMS_P2;Temp;Humidity;BMP_temperature;BMP_pressure;BME280_temperature;BME280_humidity;BME280_pressure;Samples;Min_cycle;Max_cycle;Signal;HPM_P1;HPM_P2
2022/11/04 00:00:00;;;;;;;0.00;0.00;;;16.60;91.40;;;;;;4175750;28;20126;-61
2022/11/04 00:02:40;;;;;;;0.00;0.00;;;16.60;91.80;;;;;;4203422;28;20055;-61
2022/11/04 00:05:21;;;;;;;0.55;0.55;;;16.60;91.40;;;;;;4198566;28;20418;-61
2022/11/04 00:14:01;;;;;;;0.00;0.00;;;16.60;91.50;;;;;;4207528;28;20046;-61
2022/11/04 00:28:44;;;;;;;0.65;0.65;;;16.50;91.70;;;;;;4208526;28;20148;-62
2022/11/04 00:34:25;;;;;;;0.20;0.20;;;16.50;91.70;;;;;;4207392;28;20150;-61
2022/11/04 00:37:06;;;;;;;0.33;0.33;;;16.50;91.70;;;;;;4177173;28;20051;-61
2022/11/04 00:39:47;;;;;;;0.00;0.00;;;16.50;91.70;;;;;;4191975;28;20137;-61
2022/11/04 00:42:28;;;;;;;0.10;0.10;;;16.50;91.70;;;;;;4206859;27;20047;-61
2022/11/04 00:45:09;;;;;;;0.00;0.00;;;16.50;91.80;;;;;;4191358;28;20059;-61
2022/11/04 00:47:51;;;;;;;0.00;0.00;;;16.50;91.80;;;;;;4191938;28;20064;-61
2022/11/04 00:50:32;;;;;;;0.10;0.10;;;16.40;91.80;;;;;;4191905;28;20055;-61
2022/11/04 00:53:13;;;;;;;0.00;0.00;;;16.50;91.80;;;;;;4158919;28;20083;-61
2022/11/04 00:55:59;;;;;;;0.38;0.38;;;16.50;91.80;;;;;;4179470;28;20060;-61
2022/11/04 00:58:40;;;;;;;0.00;0.00;;;16.40;91.80;;;;;;4191829;28;20048;-62
2022/11/04 01:01:20;;;;;;;0.10;0.10;;;16.40;91.70;;;;;;4192643;28;20052;-61
2022/11/04 01:04:02;;;;;;;0.47;0.47;;;16.40;91.80;;;;;;4194656;28;20340;-61
2022/11/04 01:06:43;;;;;;;1.00;1.00;;;16.40;91.80;;;;;;4194582;28;20624;-61
2022/11/04 01:09:24;;;;;;;2.45;2.22;;;16.40;91.80;;;;;;4194717;28;20082;-62
2022/11/04 01:12:05;;;;;;;0.65;0.65;;;16.40;91.90;;;;;;4182537;28;20186;-61
2022/11/04 01:14:48;;;;;;;0.20;0.20;;;16.40;91.90;;;;;;4177548;28;20048;-61
2022/11/04 01:17:29;;;;;;;0.25;0.25;;;16.40;91.80;;;;;;4177933;28;20055;-62
2022/11/04 01:20:13;;;;;;;0.00;0.00;;;16.40;91.80;;;;;;4177879;28;20402;-62
2022/11/04 01:22:53;;;;;;;0.10;0.10;;;16.40;91.80;;;;;;4169267;28;20178;-62
2022/11/04 01:25:39;;;;;;;0.00;0.00;;;16.40;91.90;;;;;;4177379;28;20175;-61
2022/11/04 01:28:19;;;;;;;0.65;0.65;;;16.40;91.90;;;;;;4177969;28;20680;-62
2022/11/04 01:31:05;;;;;;;0.00;0.00;;;16.40;91.90;;;;;;4173948;28;20505;-61
2022/11/04 01:33:47;;;;;;;0.00;0.00;;;16.40;92.30;;;;;;4194399;28;20059;-61
2022/11/04 01:36:29;;;;;;;0.08;0.08;;;16.30;91.90;;;;;;4161546;28;20052;-61
2022/11/04 01:39:11;;;;;;;0.00;0.00;;;16.30;92.00;;;;;;4161548;28;20057;-61
2022/11/04 01:41:52;;;;;;;0.22;0.22;;;16.30;92.00;;;;;;4187889;28;20051;-61
2022/11/04 01:44:54;;;;;;;0.00;0.00;;;16.30;92.00;;;;;;4194661;28;20052;-62
2022/11/04 01:47:40;;;;;;;0.00;0.00;;;16.30;92.00;;;;;;4176211;28;20408;-61
2022/11/04 01:50:24;;;;;;;0.00;0.00;;;16.30;92.00;;;;;;4178621;28;20048;-61
2022/11/04 01:53:12;;;;;;;0.00;0.00;;;16.30;92.00;;;;;;4192800;28;20217;-61
2022/11/04 01:55:56;;;;;;;0.00;0.00;;;16.30;92.00;;;;;;4193933;28;20109;-63
2022/11/04 01:58:42;;;;;;;0.10;0.10;;;16.30;92.00;;;;;;4199203;28;20514;-66
2022/11/04 02:01:23;;;;;;;0.10;0.10;;;16.30;92.00;;;;;;4200186;28;20051;-62
2022/11/04 02:07:04;;;;;;;0.10;0.10;;;16.30;92.00;;;;;;4193360;28;20070;-62
2022/11/04 02:09:46;;;;;;;0.22;0.22;;;16.30;92.00;;;;;;4192614;28;20051;-61
2022/11/04 02:15:35;;;;;;;0.43;0.43;;;16.30;92.10;;;;;;4210141;28;20059;-62
2022/11/04 02:18:48;;;;;;;0.00;0.00;;;16.30;92.10;;;;;;4210088;28;20090;-62
2022/11/04 02:22:21;;;;;;;1.10;0.68;;;16.30;92.30;;;;;;4204979;28;20055;-62
2022/11/04 02:25:48;;;;;;;0.00;0.00;;;16.20;92.10;;;;;;4193969;28;20067;-62
2022/11/04 02:28:46;;;;;;;0.00;0.00;;;16.20;92.10;;;;;;4152229;28;20047;-62
2022/11/04 02:31:33;;;;;;;0.00;0.00;;;16.20;92.50;;;;;;4192888;28;20056;-61
2022/11/04 02:34:22;;;;;;;0.00;0.00;;;16.20;92.10;;;;;;4196237;28;20066;-62
2022/11/04 02:37:12;;;;;;;0.17;0.17;;;16.20;92.10;;;;;;4207626;28;20063;-62
2022/11/04 02:40:01;;;;;;;0.00;0.00;;;16.20;92.20;;;;;;4192284;28;20047;-62
2022/11/04 02:42:49;;;;;;;0.00;0.00;;;16.20;92.10;;;;;;4193227;28;20133;-61
2022/11/04 02:45:38;;;;;;;0.28;0.28;;;16.20;92.20;;;;;;4162565;28;20045;-62
2022/11/04 02:48:27;;;;;;;1.08;1.08;;;16.20;92.20;;;;;;4177922;28;20097;-62
2022/11/04 02:51:14;;;;;;;0.63;0.63;;;16.20;92.60;;;;;;4178338;28;20052;-62
2022/11/04 02:54:02;;;;;;;0.10;0.10;;;16.20;92.20;;;;;;4194741;27;20063;-62
2022/11/04 02:56:48;;;;;;;0.00;0.00;;;16.20;92.20;;;;;;4209036;27;20095;-62
2022/11/04 02:59:35;;;;;;;0.20;0.20;;;16.20;92.20;;;;;;4208267;27;20474;-62
2022/11/04 03:02:21;;;;;;;0.00;0.00;;;16.20;92.20;;;;;;4176823;28;20056;-62
2022/11/04 03:05:08;;;;;;;0.32;0.32;;;16.20;92.30;;;;;;4176696;28;20172;-61
2022/11/04 03:07:53;;;;;;;0.00;0.00;;;16.20;92.30;;;;;;4176357;28;20069;-62
2022/11/04 03:10:38;;;;;;;0.00;0.00;;;16.20;92.30;;;;;;4183481;28;20506;-61
2022/11/04 03:13:23;;;;;;;0.15;0.15;;;16.20;92.30;;;;;;4193999;27;20059;-61
2022/11/04 03:16:08;;;;;;;0.10;0.10;;;16.20;92.30;;;;;;4176251;28;20060;-62
2022/11/04 03:18:58;;;;;;;0.00;0.00;;;16.20;92.30;;;;;;4176534;28;20056;-62
2022/11/04 03:21:45;;;;;;;0.20;0.20;;;16.20;92.30;;;;;;4181486;28;20074;-62
2022/11/04 03:24:26;;;;;;;0.00;0.00;;;16.20;92.30;;;;;;4192325;28;20102;-62
2022/11/04 03:27:18;;;;;;;0.00;0.00;;;16.20;92.30;;;;;;4192696;28;20048;-61
2022/11/04 03:30:04;;;;;;;0.00;0.00;;;16.20;92.30;;;;;;4192509;28;20062;-62
2022/11/04 03:32:53;;;;;;;0.00;0.00;;;16.20;92.30;;;;;;4192054;28;20109;-62
2022/11/04 03:35:34;;;;;;;0.00;0.00;;;16.10;92.30;;;;;;4192668;28;20052;-61
2022/11/04 03:38:16;;;;;;;0.00;0.00;;;16.10;92.30;;;;;;4192075;28;20482;-61
2022/11/04 03:41:01;;;;;;;0.00;0.00;;;16.10;92.70;;;;;;4191962;28;20055;-62
2022/11/04 03:43:42;;;;;;;0.00;0.00;;;16.10;92.30;;;;;;4192011;28;20071;-61
2022/11/04 03:46:24;;;;;;;0.05;0.05;;;16.10;92.40;;;;;;4209055;27;20054;-62
2022/11/04 03:49:06;;;;;;;0.00;0.00;;;16.10;92.40;;;;;;4209084;27;20494;-63
2022/11/04 03:51:47;;;;;;;0.00;0.00;;;16.10;92.30;;;;;;4189688;27;20060;-63
2022/11/04 03:54:34;;;;;;;0.00;0.00;;;16.10;92.30;;;;;;4209239;27;20076;-62
2022/11/04 03:57:28;;;;;;;0.05;0.05;;;16.10;92.40;;;;;;4209059;27;20506;-62
2022/11/04 04:00:12;;;;;;;0.00;0.00;;;16.10;92.40;;;;;;4190423;28;20051;-62
2022/11/04 04:03:01;;;;;;;0.00;0.00;;;16.10;92.40;;;;;;4159370;28;20495;-62
2022/11/04 04:05:51;;;;;;;0.00;0.00;;;16.10;92.40;;;;;;4159302;28;20083;-62
2022/11/04 04:08:35;;;;;;;0.00;0.00;;;16.10;92.40;;;;;;4175846;28;20056;-62
2022/11/04 04:11:22;;;;;;;0.00;0.00;;;16.10;92.40;;;;;;4206321;28;20241;-62
2022/11/04 04:14:10;;;;;;;0.00;0.00;;;16.10;92.50;;;;;;4209016;28;20059;-62
2022/11/04 04:16:54;;;;;;;0.32;0.32;;;16.10;92.40;;;;;;4207775;28;20525;-62
2022/11/04 04:19:36;;;;;;;0.00;0.00;;;16.10;92.50;;;;;;4208936;28;20144;-62
2022/11/04 04:22:21;;;;;;;0.00;0.00;;;16.10;92.40;;;;;;4192626;28;20059;-62
2022/11/04 04:28:07;;;;;;;0.00;0.00;;;16.10;92.50;;;;;;4191997;28;20072;-61
2022/11/04 04:30:48;;;;;;;1.02;1.02;;;16.10;92.40;;;;;;4205512;28;20050;-62
2022/11/04 04:33:29;;;;;;;0.10;0.10;;;16.10;92.50;;;;;;4208996;28;20132;-62
2022/11/04 04:36:10;;;;;;;0.00;0.00;;;16.10;92.50;;;;;;4211260;28;20128;-62
2022/11/04 04:45:02;;;;;;;0.00;0.00;;;16.10;92.40;;;;;;4195131;28;20511;-63
2022/11/04 04:47:46;;;;;;;0.63;0.63;;;16.00;92.50;;;;;;4178788;28;20056;-62
2022/11/04 04:50:31;;;;;;;0.00;0.00;;;16.00;92.50;;;;;;4190873;28;20083;-62
2022/11/04 04:53:12;;;;;;;0.00;0.00;;;16.00;92.50;;;;;;4178816;28;20052;-62
2022/11/04 04:55:52;;;;;;;0.00;0.00;;;16.00;92.50;;;;;;4184182;28;20126;-63
2022/11/04 04:58:33;;;;;;;0.13;0.13;;;16.00;92.50;;;;;;4209229;28;20529;-62
2022/11/04 05:01:16;;;;;;;0.70;0.70;;;16.00;92.50;;;;;;4195953;28;20098;-63
2022/11/04 05:03:56;;;;;;;0.00;0.00;;;16.00;92.60;;;;;;4211863;28;20189;-62
2022/11/04 05:06:37;;;;;;;0.00;0.00;;;16.00;92.60;;;;;;4203175;28;20051;-62
2022/11/04 05:09:18;;;;;;;0.00;0.00;;;16.00;92.60;;;;;;4195269;28;20144;-63
2022/11/04 05:11:59;;;;;;;0.00;0.00;;;16.00;92.60;;;;;;4195134;28;20219;-62
2022/11/04 05:14:40;;;;;;;0.00;0.00;;;16.00;92.60;;;;;;4206193;28;20285;-62
2022/11/04 05:17:22;;;;;;;0.00;0.00;;;16.00;92.60;;;;;;4178574;28;20490;-62
2022/11/04 05:20:03;;;;;;;0.00;0.00;;;16.00;92.60;;;;;;4182236;28;20060;-62
2022/11/04 05:22:44;;;;;;;0.00;0.00;;;16.00;92.60;;;;;;4194660;28;20056;-62
2022/11/04 05:25:25;;;;;;;0.00;0.00;;;16.00;93.00;;;;;;4195311;28;20117;-62
2022/11/04 05:28:06;;;;;;;0.00;0.00;;;16.00;92.60;;;;;;4210972;28;20071;-62
2022/11/04 05:30:47;;;;;;;0.00;0.00;;;16.00;92.70;;;;;;4210624;28;20059;-63
2022/11/04 05:33:30;;;;;;;0.00;0.00;;;16.00;92.70;;;;;;4211588;28;20109;-62
2022/11/04 05:36:12;;;;;;;0.00;0.00;;;16.00;92.60;;;;;;4210201;28;20055;-63
2022/11/04 05:38:55;;;;;;;0.10;0.10;;;16.00;92.60;;;;;;4210967;28;20055;-63
2022/11/04 05:41:36;;;;;;;0.00;0.00;;;16.00;93.00;;;;;;4211469;28;20387;-63
2022/11/04 05:44:17;;;;;;;0.00;0.00;;;16.00;92.60;;;;;;4211091;28;20059;-63
2022/11/04 05:46:57;;;;;;;0.00;0.00;;;15.90;92.60;;;;;;4208690;27;20055;-63
2022/11/04 05:49:40;;;;;;;0.00;0.00;;;16.00;92.70;;;;;;4211232;27;20070;-62
2022/11/04 05:52:20;;;;;;;0.00;0.00;;;16.00;92.70;;;;;;4205531;27;20050;-62
2022/11/04 05:55:01;;;;;;;0.37;0.37;;;15.90;92.70;;;;;;4208738;27;20051;-62
2022/11/04 05:57:42;;;;;;;0.00;0.00;;;15.90;92.70;;;;;;4194247;28;20043;-62
2022/11/04 06:00:23;;;;;;;0.00;0.00;;;16.00;92.70;;;;;;4177884;28;20404;-62
2022/11/04 06:03:04;;;;;;;0.00;0.00;;;15.90;92.70;;;;;;4178077;28;20554;-62
2022/11/04 06:05:47;;;;;;;0.00;0.00;;;15.90;92.70;;;;;;4184778;28;20383;-62
2022/11/04 06:08:29;;;;;;;0.00;0.00;;;15.90;92.70;;;;;;4193432;28;20522;-62
2022/11/04 06:11:10;;;;;;;0.00;0.00;;;15.90;93.10;;;;;;4193131;28;20052;-65
2022/11/04 06:13:51;;;;;;;0.00;0.00;;;15.90;92.70;;;;;;4192891;28;20803;-63
2022/11/04 06:16:33;;;;;;;0.00;0.00;;;15.90;92.70;;;;;;4160587;28;20048;-63
2022/11/04 06:19:13;;;;;;;0.00;0.00;;;15.90;92.70;;;;;;4170669;28;20051;-62
2022/11/04 06:21:57;;;;;;;0.10;0.10;;;15.90;92.70;;;;;;4192407;28;20055;-63
2022/11/04 06:24:38;;;;;;;0.00;0.00;;;15.90;92.70;;;;;;4178921;28;20191;-62
2022/11/04 06:27:19;;;;;;;0.00;0.00;;;15.90;92.80;;;;;;4208219;28;20059;-62
2022/11/04 06:30:00;;;;;;;0.00;0.00;;;15.90;92.80;;;;;;4210191;28;20265;-62
2022/11/04 06:32:41;;;;;;;0.00;0.00;;;15.90;92.80;;;;;;4209496;28;20114;-62
2022/11/04 06:35:22;;;;;;;0.00;0.00;;;15.90;92.80;;;;;;4195024;28;20108;-63
2022/11/04 06:38:04;;;;;;;0.00;0.00;;;15.90;92.80;;;;;;4205088;28;20055;-64
2022/11/04 06:40:46;;;;;;;0.00;0.00;;;15.90;93.00;;;;;;4179669;28;20059;-62
2022/11/04 06:43:26;;;;;;;0.00;0.00;;;15.90;93.10;;;;;;4192965;28;20051;-64
2022/11/04 06:46:23;;;;;;;0.00;0.00;;;16.00;93.20;;;;;;4208482;28;20519;-63
2022/11/04 06:49:04;;;;;;;0.00;0.00;;;16.00;93.10;;;;;;4209191;28;20047;-64
2022/11/04 06:51:46;;;;;;;0.00;0.00;;;16.00;92.90;;;;;;4195421;28;20066;-64
2022/11/04 06:54:28;;;;;;;0.00;0.00;;;16.10;92.90;;;;;;4210132;28;20055;-64
2022/11/04 06:57:12;;;;;;;0.00;0.00;;;16.00;92.80;;;;;;4192379;28;20059;-64
2022/11/04 06:59:53;;;;;;;0.22;0.22;;;16.00;92.80;;;;;;4196325;28;20663;-64
2022/11/04 07:02:37;;;;;;;0.00;0.00;;;16.00;92.70;;;;;;4200346;28;20125;-64
2022/11/04 07:05:18;;;;;;;1.35;1.35;;;16.00;92.70;;;;;;4176310;28;20071;-64
2022/11/04 07:07:59;;;;;;;1.05;1.02;;;15.90;92.70;;;;;;4182982;28;20056;-64
2022/11/04 07:10:42;;;;;;;0.30;0.30;;;15.90;92.60;;;;;;4192696;28;20047;-64
2022/11/04 07:13:22;;;;;;;0.00;0.00;;;15.90;92.70;;;;;;4193084;28;20129;-64
2022/11/04 07:16:05;;;;;;;0.00;0.00;;;15.90;92.60;;;;;;4203581;28;20819;-65
2022/11/04 07:18:46;;;;;;;0.00;0.00;;;15.90;92.60;;;;;;4194103;28;20051;-64
2022/11/04 07:21:30;;;;;;;0.00;0.00;;;15.90;92.70;;;;;;4203314;28;20518;-64
2022/11/04 07:24:12;;;;;;;0.00;0.00;;;15.90;92.70;;;;;;4201866;28;20064;-65
2022/11/04 07:26:56;;;;;;;0.00;0.00;;;15.90;92.60;;;;;;4190982;28;20483;-66
2022/11/04 07:29:37;;;;;;;0.00;0.00;;;15.90;92.60;;;;;;4192593;28;20056;-67
2022/11/04 07:32:18;;;;;;;0.47;0.47;;;15.90;92.60;;;;;;4192258;28;20074;-64
2022/11/04 07:35:01;;;;;;;2.40;1.33;;;15.80;92.50;;;;;;4191967;28;20612;-65
2022/11/04 07:37:41;;;;;;;0.00;0.00;;;15.80;92.50;;;;;;4191026;28;20502;-64
2022/11/04 07:40:22;;;;;;;0.00;0.00;;;15.80;92.40;;;;;;4192050;28;20051;-64
2022/11/04 07:43:05;;;;;;;0.00;0.00;;;15.90;92.40;;;;;;4191741;28;20367;-65
2022/11/04 07:46:00;;;;;;;0.00;0.00;;;15.80;92.40;;;;;;4201466;28;20525;-64
2022/11/04 07:48:42;;;;;;;3.73;1.70;;;15.80;92.30;;;;;;4200575;28;20125;-65
2022/11/04 07:51:23;;;;;;;0.00;0.00;;;15.80;92.30;;;;;;4209196;28;20114;-64
2022/11/04 07:54:04;;;;;;;0.57;0.57;;;15.80;92.20;;;;;;4173750;28;20052;-64
2022/11/04 07:56:45;;;;;;;0.00;0.00;;;15.80;92.20;;;;;;4164580;28;20529;-64
2022/11/04 07:59:27;;;;;;;0.45;0.45;;;15.80;92.20;;;;;;4171578;28;20051;-64
2022/11/04 08:02:09;;;;;;;0.00;0.00;;;15.80;92.20;;;;;;4176443;28;20606;-64
2022/11/04 08:04:51;;;;;;;0.00;0.00;;;15.80;92.20;;;;;;4184706;28;21274;-60
2022/11/04 08:07:34;;;;;;;0.00;0.00;;;15.80;92.20;;;;;;4171586;28;20055;-64
2022/11/04 08:10:15;;;;;;;0.00;0.00;;;15.80;92.20;;;;;;4171792;28;20064;-64
2022/11/04 08:12:57;;;;;;;0.00;0.00;;;15.80;92.20;;;;;;4173818;28;20051;-64
2022/11/04 08:15:39;;;;;;;;;;;15.80;92.20;;;;;;4173764;28;20439;-64
2022/11/04 08:18:20;;;;;;;0.00;0.00;;;15.80;92.10;;;;;;4184478;28;19931;-64
2022/11/04 08:21:03;;;;;;;0.28;0.28;;;15.70;92.00;;;;;;4187072;28;20075;-65
2022/11/04 08:23:45;;;;;;;0.00;0.00;;;15.70;92.00;;;;;;4173621;28;20052;-64
2022/11/04 08:26:26;;;;;;;;;;;15.70;92.00;;;;;;4174759;28;20060;-64
2022/11/04 08:29:07;;;;;;;0.03;0.03;;;15.70;92.00;;;;;;4173804;28;19935;-64
2022/11/04 08:31:49;;;;;;;0.00;0.00;;;15.80;91.90;;;;;;4177860;28;20076;-64
2022/11/04 08:34:30;;;;;;;0.00;0.00;;;15.70;91.90;;;;;;4181845;28;20051;-64
2022/11/04 08:37:14;;;;;;;0.00;0.00;;;15.70;91.90;;;;;;4177926;28;20052;-64
2022/11/04 08:39:55;;;;;;;0.00;0.00;;;15.70;91.90;;;;;;4180101;28;20064;-63
2022/11/04 08:42:36;;;;;;;0.00;0.00;;;15.70;91.90;;;;;;4176571;28;20079;-64
2022/11/04 08:45:17;;;;;;;0.00;0.00;;;15.70;91.90;;;;;;4175631;28;20052;-64
2022/11/04 08:47:59;;;;;;;0.00;0.00;;;15.70;91.50;;;;;;4188839;28;20160;-64
2022/11/04 08:50:49;;;;;;;0.00;0.00;;;15.70;91.80;;;;;;4188898;28;20059;-64
2022/11/04 08:53:30;;;;;;;0.00;0.00;;;15.70;91.80;;;;;;4182407;28;20055;-64
2022/11/04 08:56:13;;;;;;;0.13;0.13;;;15.70;91.80;;;;;;4188534;28;20060;-64
2022/11/04 08:58:55;;;;;;;0.00;0.00;;;15.70;91.80;;;;;;4188973;28;20054;-64
2022/11/04 09:01:37;;;;;;;0.00;0.00;;;15.70;91.80;;;;;;4173773;28;20158;-64
2022/11/04 09:04:19;;;;;;;0.00;0.00;;;15.70;91.80;;;;;;4175998;28;20056;-64
2022/11/04 09:07:04;;;;;;;0.00;0.00;;;15.70;91.80;;;;;;4173221;28;20056;-64
2022/11/04 09:09:48;;;;;;;0.00;0.00;;;15.70;91.80;;;;;;4187560;28;20097;-64
2022/11/04 09:12:29;;;;;;;0.00;0.00;;;15.70;91.90;;;;;;4173394;28;20055;-64
2022/11/04 09:15:10;;;;;;;0.00;0.00;;;15.70;92.30;;;;;;4178024;28;20052;-64
2022/11/04 09:17:51;;;;;;;0.00;0.00;;;15.70;91.90;;;;;;4182344;28;20059;-64
2022/11/04 09:20:37;;;;;;;0.00;0.00;;;15.70;92.30;;;;;;4183833;28;20052;-64
2022/11/04 09:23:18;;;;;;;0.00;0.00;;;15.70;91.90;;;;;;4179766;28;20400;-64
2022/11/04 09:26:02;;;;;;;0.00;0.00;;;15.70;91.90;;;;;;4182811;28;20060;-64
2022/11/04 09:28:43;;;;;;;0.00;0.00;;;15.70;91.80;;;;;;4191760;28;20059;-64
2022/11/04 09:31:26;;;;;;;0.00;0.00;;;15.70;91.90;;;;;;4190867;28;20059;-64
2022/11/04 09:34:07;;;;;;;0.00;0.00;;;15.70;91.80;;;;;;4185336;28;20059;-64
2022/11/04 09:36:49;;;;;;;0.00;0.00;;;15.70;91.80;;;;;;4178135;28;20068;-64
2022/11/04 09:39:30;;;;;;;7.13;1.77;;;15.70;91.80;;;;;;4190410;28;20384;-64
2022/11/04 09:42:28;;;;;;;0.10;0.10;;;15.70;91.90;;;;;;4184869;28;20129;-64
2022/11/04 09:45:13;;;;;;;0.00;0.00;;;15.70;91.80;;;;;;4184864;28;20059;-64
2022/11/04 09:48:07;;;;;;;0.00;0.00;;;15.80;91.80;;;;;;4179034;28;20056;-64
2022/11/04 09:50:52;;;;;;;0.00;0.00;;;15.70;91.80;;;;;;4182287;28;20416;-64
2022/11/04 09:53:41;;;;;;;0.00;0.00;;;15.70;91.80;;;;;;4175868;28;20048;-64
2022/11/04 09:56:25;;;;;;;0.00;0.00;;;15.70;91.80;;;;;;4179667;28;20055;-64
2022/11/04 09:59:09;;;;;;;0.00;0.00;;;15.80;91.80;;;;;;4212674;28;20051;-64
2022/11/04 10:02:01;;;;;;;0.00;0.00;;;15.80;91.80;;;;;;4175591;28;20055;-63
2022/11/04 10:04:51;;;;;;;0.00;0.00;;;15.80;91.80;;;;;;4175588;28;20069;-64
2022/11/04 10:07:52;;;;;;;0.00;0.00;;;15.80;91.80;;;;;;4175156;28;20064;-64
2022/11/04 10:10:44;;;;;;;0.00;0.00;;;15.80;91.80;;;;;;4187608;28;20048;-64
2022/11/04 10:13:31;;;;;;;0.00;0.00;;;15.80;91.80;;;;;;4176103;28;20118;-64
2022/11/04 10:16:22;;;;;;;0.30;0.30;;;15.80;91.80;;;;;;4176897;28;20524;-64
2022/11/04 10:19:20;;;;;;;;;;;15.80;91.80;;;;;;4175707;28;20075;-61
2022/11/04 10:22:07;;;;;;;0.00;0.00;;;15.80;91.80;;;;;;4206829;28;19943;-62
2022/11/04 10:25:00;;;;;;;0.00;0.00;;;15.90;92.60;;;;;;4183081;28;20174;-62
2022/11/04 10:27:45;;;;;;;0.00;0.00;;;15.90;92.20;;;;;;4173906;28;20052;-61
2022/11/04 10:30:28;;;;;;;0.00;0.00;;;15.90;92.10;;;;;;4181423;28;20060;-62
2022/11/04 10:33:24;;;;;;;0.10;0.10;;;15.90;92.00;;;;;;4182079;28;20146;-62
2022/11/04 10:36:07;;;;;;;0.00;0.00;;;15.90;91.80;;;;;;4190528;28;20108;-63
2022/11/04 10:38:53;;;;;;;0.00;0.00;;;15.90;91.70;;;;;;4174657;28;20111;-62
2022/11/04 10:41:37;;;;;;;0.00;0.00;;;15.90;91.70;;;;;;4174887;28;20137;-63
2022/11/04 10:44:24;;;;;;;0.00;0.00;;;15.90;91.60;;;;;;4180851;28;20059;-63
2022/11/04 10:47:15;;;;;;;0.40;0.40;;;15.90;91.60;;;;;;4178186;28;20105;-63
2022/11/04 10:50:18;;;;;;;0.00;0.00;;;15.90;91.60;;;;;;4176591;27;20214;-63
2022/11/04 10:53:12;;;;;;;0.00;0.00;;;15.90;91.60;;;;;;4179346;28;20063;-64
2022/11/04 10:56:01;;;;;;;0.00;0.00;;;15.90;91.60;;;;;;4184901;28;20411;-64
2022/11/04 10:58:46;;;;;;;0.00;0.00;;;15.90;91.60;;;;;;4180507;28;20055;-64
2022/11/04 11:01:33;;;;;;;9.02;2.53;;;15.90;91.60;;;;;;4184200;28;20074;-67
2022/11/04 11:04:25;;;;;;;0.00;0.00;;;16.00;91.50;;;;;;4174600;28;20059;-64
2022/11/04 11:07:08;;;;;;;0.00;0.00;;;16.00;91.50;;;;;;4175100;27;20114;-64
2022/11/04 11:09:52;;;;;;;0.38;0.38;;;16.00;91.50;;;;;;4189345;28;20182;-65
2022/11/04 11:12:45;;;;;;;0.00;0.00;;;16.00;91.50;;;;;;4174563;28;20140;-65
2022/11/04 11:15:34;;;;;;;0.00;0.00;;;16.00;91.50;;;;;;4173140;28;20055;-65
2022/11/04 11:18:21;;;;;;;0.00;0.00;;;16.00;91.50;;;;;;4156793;28;20056;-64
2022/11/04 11:21:07;;;;;;;0.00;0.00;;;16.10;91.60;;;;;;4166138;28;20056;-65
2022/11/04 11:23:53;;;;;;;0.00;0.00;;;16.10;91.50;;;;;;4186608;28;20060;-64
2022/11/04 11:26:34;;;;;;;0.00;0.00;;;16.10;91.60;;;;;;4202571;28;20829;-64
2022/11/04 11:29:22;;;;;;;0.00;0.00;;;16.20;91.60;;;;;;4209560;28;20055;-64
2022/11/04 11:32:03;;;;;;;0.00;0.00;;;16.20;91.60;;;;;;4208972;28;20051;-63
2022/11/04 11:34:47;;;;;;;;;;;16.20;92.00;;;;;;4209812;28;20059;-63
2022/11/04 11:37:30;;;;;;;0.00;0.00;;;16.20;91.50;;;;;;4209709;28;19927;-63
2022/11/04 11:40:28;;;;;;;0.00;0.00;;;16.20;91.50;;;;;;4201884;28;20145;-63
2022/11/04 11:43:23;;;;;;;0.32;0.32;;;16.20;91.50;;;;;;4192687;28;20051;-63
2022/11/04 11:46:05;;;;;;;0.00;0.00;;;16.20;91.50;;;;;;4191810;28;20182;-63
2022/11/04 11:48:50;;;;;;;;;;;16.20;91.50;;;;;;4193257;28;20090;-63
2022/11/04 11:51:34;;;;;;;0.00;0.00;;;16.20;91.40;;;;;;4192764;28;20014;-63
2022/11/04 11:54:29;;;;;;;0.00;0.00;;;16.20;91.50;;;;;;4192275;28;20051;-63
2022/11/04 11:57:23;;;;;;;0.00;0.00;;;16.20;91.90;;;;;;4192313;28;20224;-62
2022/11/04 12:00:11;;;;;;;0.00;0.00;;;16.20;92.00;;;;;;4191984;28;20051;-63
2022/11/04 12:03:17;;;;;;;0.00;0.00;;;16.30;91.60;;;;;;4192495;28;20051;-63
2022/11/04 12:06:16;;;;;;;0.52;0.25;;;16.30;91.60;;;;;;4192228;28;20102;-62
2022/11/04 12:09:16;;;;;;;0.03;0.03;;;16.30;91.60;;;;;;4192098;28;20379;-63
2022/11/04 12:12:08;;;;;;;0.00;0.00;;;16.30;91.60;;;;;;4191679;28;20039;-64
2022/11/04 12:15:06;;;;;;;0.00;0.00;;;16.30;91.50;;;;;;4175673;28;20411;-64
2022/11/04 12:17:58;;;;;;;0.10;0.10;;;16.30;91.50;;;;;;4175071;28;20450;-64
2022/11/04 12:20:49;;;;;;;0.00;0.00;;;16.30;91.50;;;;;;4175421;28;20052;-64
2022/11/04 12:23:36;;;;;;;0.00;0.00;;;16.30;91.40;;;;;;4185180;28;20614;-64
2022/11/04 12:26:30;;;;;;;0.10;0.10;;;16.30;91.40;;;;;;4192175;28;20060;-64
2022/11/04 12:29:32;;;;;;;0.00;0.00;;;16.20;91.30;;;;;;4192105;28;20055;-63
2022/11/04 12:32:25;;;;;;;0.00;0.00;;;16.20;91.30;;;;;;4191775;28;20063;-63
2022/11/04 12:35:18;;;;;;;0.00;0.00;;;16.20;91.30;;;;;;4192177;28;20074;-63
2022/11/04 12:38:16;;;;;;;0.00;0.00;;;16.20;91.40;;;;;;4191289;28;20055;-63
2022/11/04 12:41:07;;;;;;;0.00;0.00;;;16.20;91.40;;;;;;4175152;28;20056;-63
2022/11/04 12:44:19;;;;;;;0.00;0.00;;;16.20;91.40;;;;;;4175900;28;20056;-64
2022/11/04 12:47:14;;;;;;;0.00;0.00;;;16.20;91.40;;;;;;4189379;28;20063;-64
2022/11/04 12:50:16;;;;;;;0.00;0.00;;;16.20;91.40;;;;;;4192291;28;20058;-64
2022/11/04 12:53:32;;;;;;;0.00;0.00;;;16.20;91.40;;;;;;4178850;28;20056;-64
2022/11/04 12:56:17;;;;;;;0.00;0.00;;;16.20;91.50;;;;;;4141266;28;20504;-64
2022/11/04 12:59:26;;;;;;;0.00;0.00;;;16.20;91.40;;;;;;4195236;28;20518;-67
2022/11/04 13:02:16;;;;;;;0.00;0.00;;;16.20;91.40;;;;;;4179299;28;20056;-67
2022/11/04 13:05:06;;;;;;;0.00;0.00;;;16.20;91.50;;;;;;4194738;28;20514;-65
2022/11/04 13:07:54;;;;;;;0.70;0.70;;;16.20;91.40;;;;;;4194677;28;20186;-64
2022/11/04 13:10:42;;;;;;;0.00;0.00;;;16.20;91.40;;;;;;4194834;28;20792;-64
2022/11/04 13:13:29;;;;;;;0.00;0.00;;;16.20;91.40;;;;;;4194684;28;20060;-64
2022/11/04 13:16:12;;;;;;;0.03;0.03;;;16.20;91.50;;;;;;4193446;28;20134;-65
2022/11/04 13:18:54;;;;;;;0.00;0.00;;;16.20;91.40;;;;;;4177270;28;20213;-64
2022/11/04 13:21:38;;;;;;;0.00;0.00;;;16.20;91.40;;;;;;4177923;28;20187;-64
2022/11/04 13:24:29;;;;;;;7.55;2.30;;;16.10;91.40;;;;;;4177583;28;20055;-64
2022/11/04 13:27:18;;;;;;;0.00;0.00;;;16.20;91.50;;;;;;4194374;28;20086;-64
2022/11/04 13:30:06;;;;;;;0.32;0.32;;;16.20;91.50;;;;;;4194538;28;20052;-64
2022/11/04 13:32:53;;;;;;;0.00;0.00;;;16.20;91.40;;;;;;4191695;28;20564;-64
2022/11/04 13:35:42;;;;;;;0.00;0.00;;;16.20;91.50;;;;;;4178079;28;20051;-64
2022/11/04 13:38:28;;;;;;;0.00;0.00;;;16.20;91.50;;;;;;4178265;28;20130;-64
2022/11/04 13:41:46;;;;;;;0.00;0.00;;;16.30;91.50;;;;;;4178309;28;20051;-64
2022/11/04 13:44:30;;;;;;;0.00;0.00;;;16.30;91.60;;;;;;4161309;28;20112;-64
2022/11/04 13:47:19;;;;;;;0.00;0.00;;;16.30;91.60;;;;;;4161500;28;20051;-64
2022/11/04 13:50:01;;;;;;;0.00;0.00;;;16.30;91.60;;;;;;4186965;28;20055;-64
2022/11/04 13:52:49;;;;;;;0.00;0.00;;;16.40;91.70;;;;;;4180364;28;20056;-64
2022/11/04 13:55:34;;;;;;;0.00;0.00;;;16.40;91.70;;;;;;4194275;28;20872;-64
2022/11/04 13:58:22;;;;;;;0.00;0.00;;;16.40;91.70;;;;;;4194382;28;20163;-64
2022/11/04 14:01:11;;;;;;;0.00;0.00;;;16.50;91.70;;;;;;4193015;28;20094;-63
2022/11/04 14:03:53;;;;;;;0.00;0.00;;;16.50;91.80;;;;;;4191542;27;20194;-66
2022/11/04 14:06:52;;;;;;;0.00;0.00;;;16.50;92.10;;;;;;4177278;28;20048;-65
2022/11/04 14:09:53;;;;;;;0.00;0.00;;;16.50;91.70;;;;;;4177175;28;20052;-65
2022/11/04 14:12:35;;;;;;;0.00;0.00;;;16.60;91.40;;;;;;4178463;28;20052;-65
2022/11/04 14:15:40;;;;;;;0.00;0.00;;;16.60;91.30;;;;;;4177325;28;20492;-64
2022/11/04 14:18:28;;;;;;;0.00;0.00;;;16.60;91.30;;;;;;4166355;28;20434;-64
2022/11/04 14:21:12;;;;;;;0.00;0.00;;;16.70;91.30;;;;;;4177121;28;20060;-64
2022/11/04 14:23:55;;;;;;;0.00;0.00;;;16.70;91.30;;;;;;4202054;27;20186;-64
2022/11/04 14:26:44;;;;;;;0.00;0.00;;;16.70;91.40;;;;;;4193528;28;20568;-64
2022/11/04 14:29:26;;;;;;;0.00;0.00;;;16.70;91.40;;;;;;4193697;28;20044;-64
2022/11/04 14:32:12;;;;;;;0.00;0.00;;;16.70;91.70;;;;;;4197240;27;20051;-64
2022/11/04 14:35:00;;;;;;;0.00;0.00;;;16.70;91.20;;;;;;4209268;27;20098;-64
2022/11/04 14:37:41;;;;;;;0.00;0.00;;;16.70;91.20;;;;;;4210102;27;20158;-64
2022/11/04 14:40:29;;;;;;;0.00;0.00;;;16.60;91.10;;;;;;4193423;28;20055;-64
2022/11/04 14:43:21;;;;;;;0.00;0.00;;;16.70;91.00;;;;;;4207036;28;20074;-64
2022/11/04 14:46:02;;;;;;;0.00;0.00;;;16.70;91.10;;;;;;4209528;28;20050;-65
2022/11/04 14:48:50;;;;;;;;;;;16.70;91.10;;;;;;4204364;28;20074;-64
2022/11/04 14:51:39;;;;;;;0.00;0.00;;;16.70;91.10;;;;;;4196829;28;19931;-64
2022/11/04 14:54:24;;;;;;;0.10;0.10;;;16.60;91.00;;;;;;4193443;28;20063;-64
2022/11/04 14:57:14;;;;;;;0.00;0.00;;;16.60;91.10;;;;;;4192913;28;20054;-63
2022/11/04 14:59:57;;;;;;;0.45;0.45;;;16.60;91.20;;;;;;4210107;27;20055;-64